Time;durP1;ratioP1;P1;durP2;ratioP2;P2;SDS_P1;SDS_P2;PMS_P1;PMS_P2;Temp;Humidity;BMP_temperature;BMP_pressure;BME280_temperature;BME280_humidity;BME280_pressure;Samples;Min_cycle;Max_cycle;Signal;HPM_P1;HPM_P2
2022/05/27 00:00:41;;;;;;;16.55;9.95;;;;;;;21.29;68.63;101020.06;4983274;28;20081;-89
2022/05/27 00:03:07;;;;;;;14.00;9.07;;;;;;;21.33;68.81;101021.41;4983699;28;20024;-87
2022/05/27 00:05:32;;;;;;;15.50;8.70;;;;;;;21.28;68.91;101013.78;5000563;28;20034;-88
2022/05/27 00:07:58;;;;;;;13.40;8.57;;;;;;;21.29;68.73;101020.94;4983739;28;20049;-88
2022/05/27 00:10:23;;;;;;;14.93;9.27;;;;;;;21.26;68.80;101015.81;5001646;28;20024;-88
2022/05/27 00:12:48;;;;;;;13.73;9.02;;;;;;;21.31;68.62;101026.22;5002073;28;20400;-88
2022/05/27 00:15:14;;;;;;;12.52;8.73;;;;;;;21.27;68.34;101025.75;4984368;28;20026;-88
2022/05/27 00:17:41;;;;;;;15.38;8.50;;;;;;;21.27;68.31;101019.41;4983914;28;20165;-88
2022/05/27 00:20:07;;;;;;;13.70;7.68;;;;;;;21.34;67.86;101028.59;4985520;28;20026;-88
2022/05/27 00:22:33;;;;;;;15.15;8.27;;;;;;;21.30;67.96;101022.63;5001437;28;20022;-88
2022/05/27 00:24:58;;;;;;;13.05;8.73;;;;;;;21.35;67.90;101030.28;5002058;28;20045;-88
2022/05/27 00:27:23;;;;;;;17.63;8.65;;;;;;;21.35;67.53;101025.66;5001006;28;20077;-88
2022/05/27 00:29:49;;;;;;;13.88;7.43;;;;;;;21.28;67.39;101019.25;5001037;28;20030;-88
2022/05/27 00:32:14;;;;;;;17.02;8.60;;;;;;;21.33;67.15;101022.28;4983894;28;20026;-88
2022/05/27 00:34:40;;;;;;;11.75;7.93;;;;;;;21.20;67.25;101021.19;4984341;28;20049;-88
2022/05/27 00:37:06;;;;;;;18.77;8.20;;;;;;;21.20;67.53;101026.66;5001962;28;20029;-88
2022/05/27 00:39:33;;;;;;;22.00;7.20;;;;;;;21.02;67.60;101018.72;4962458;29;20047;-88
2022/05/27 00:42:00;;;;;;;10.40;7.78;;;;;;;20.96;67.94;101019.47;4961225;28;20118;-88
2022/05/27 00:44:25;;;;;;;11.50;7.35;;;;;;;21.04;67.55;101014.78;4960304;28;20041;-90
2022/05/27 00:46:52;;;;;;;15.50;7.32;;;;;;;21.12;67.30;101022.09;4962208;28;20027;-88
2022/05/27 00:49:24;;;;;;;10.38;7.00;;;;;;;21.17;67.44;101016.94;4961588;28;20522;-87
2022/05/27 00:51:58;;;;;;;13.07;6.85;;;;;;;21.17;67.53;101028.72;4961674;28;20081;-87
2022/05/27 00:54:25;;;;;;;11.32;6.85;;;;;;;21.22;67.18;101027.34;4961931;28;20054;-89
2022/05/27 00:56:55;;;;;;;14.45;7.10;;;;;;;21.22;67.00;101028.19;4961701;28;20497;-90
2022/05/27 00:59:32;;;;;;;16.23;7.10;;;;;;;21.19;66.99;101020.34;4962274;28;20454;-87
2022/05/27 01:01:58;;;;;;;11.20;7.50;;;;;;;21.25;66.78;101027.81;4957627;28;20482;-88
2022/05/27 01:04:24;;;;;;;7.68;6.78;;;;;;;21.23;66.66;101021.66;4959201;28;20077;-88
2022/05/27 01:06:49;;;;;;;11.20;7.07;;;;;;;21.24;66.68;101023.38;4958584;28;20512;-88
2022/05/27 01:09:15;;;;;;;9.38;6.30;;;;;;;21.30;66.87;101030.00;4958638;28;20031;-87
2022/05/27 01:11:46;;;;;;;13.75;6.10;;;;;;;21.31;66.85;101028.97;4958317;28;20054;-87
2022/05/27 01:14:45;;;;;;;15.45;7.07;;;;;;;21.34;66.98;101034.06;4961758;29;20046;-85
2022/05/27 01:17:21;;;;;;;14.07;7.00;;;;;;;21.28;66.83;101024.72;4963528;29;20129;-88
2022/05/27 01:20:20;;;;;;;11.88;7.30;;;;;;;21.31;66.74;101027.09;4957035;29;20031;-89
2022/05/27 01:23:31;;;;;;;14.70;6.63;;;;;;;21.31;66.72;101034.44;4958666;28;20028;-87
2022/05/27 01:26:34;;;;;;;21.33;7.95;;;;;;;21.15;67.17;101030.81;4958628;28;20106;-87
2022/05/27 01:28:59;;;;;;;;;;;;;;;21.08;67.36;101034.41;4957766;28;20032;-87
2022/05/27 01:31:49;;;;;;;14.47;7.57;;;;;;;21.03;67.80;101036.84;4957220;28;19997;-83
2022/05/27 01:34:22;;;;;;;14.48;10.15;;;;;;;21.03;68.29;101042.31;4931016;28;20282;-88
2022/05/27 01:37:05;;;;;;;17.88;11.95;;;;;;;21.07;68.94;101051.84;4958080;29;20028;-88
2022/05/27 01:39:34;;;;;;;28.23;15.40;;;;;;;21.01;70.36;101044.38;4976371;28;20620;-88
2022/05/27 01:42:17;;;;;;;24.45;14.50;;;;;;;21.02;70.79;101046.09;4977972;28;20038;-88
2022/05/27 01:45:01;;;;;;;25.20;13.48;;;;;;;21.01;71.25;101044.38;4976203;28;20045;-88
2022/05/27 01:47:39;;;;;;;23.17;14.63;;;;;;;21.00;71.52;101045.44;4975942;28;20030;-87
2022/05/27 01:50:36;;;;;;;18.80;13.35;;;;;;;21.03;71.16;101037.72;4977662;28;20065;-88
2022/05/27 01:53:28;;;;;;;21.52;15.48;;;;;;;20.99;71.30;101030.03;4958669;28;20076;-87
2022/05/27 01:56:02;;;;;;;21.55;14.68;;;;;;;20.95;72.11;101039.63;4972805;28;20027;-89
2022/05/27 01:58:36;;;;;;;23.83;15.65;;;;;;;20.90;72.21;101028.41;4977392;28;20073;-88
2022/05/27 02:01:05;;;;;;;28.52;15.77;;;;;;;20.88;72.33;101034.06;4977213;28;20057;-88
2022/05/27 02:03:37;;;;;;;20.25;14.57;;;;;;;20.85;72.16;101041.78;4975406;28;20492;-87
2022/05/27 02:06:15;;;;;;;23.63;14.70;;;;;;;20.82;71.98;101034.78;4977345;28;20466;-88
2022/05/27 02:08:46;;;;;;;24.10;15.43;;;;;;;20.76;72.00;101043.72;4977101;28;20030;-88
2022/05/27 02:11:17;;;;;;;25.67;14.05;;;;;;;20.73;71.86;101045.94;4976698;28;20050;-88
2022/05/27 02:13:58;;;;;;;18.70;12.65;;;;;;;20.77;71.72;101050.00;4977210;28;20057;-88
2022/05/27 02:16:36;;;;;;;22.30;13.93;;;;;;;20.68;71.47;101049.22;4985437;28;20027;-87
2022/05/27 02:19:09;;;;;;;17.83;12.18;;;;;;;20.67;71.61;101041.22;4992048;28;20034;-87
2022/05/27 02:21:52;;;;;;;24.60;13.13;;;;;;;20.65;71.32;101044.09;4991032;28;20027;-87
2022/05/27 02:24:37;;;;;;;34.47;14.40;;;;;;;20.52;71.42;101044.69;4991675;28;20026;-88
2022/05/27 02:27:08;;;;;;;14.93;12.35;;;;;;;20.50;71.19;101051.38;4988779;28;20031;-89
2022/05/27 02:29:36;;;;;;;21.73;13.00;;;;;;;20.49;71.02;101045.03;4988288;28;20037;-85
2022/05/27 02:32:17;;;;;;;22.00;13.65;;;;;;;20.44;71.43;101047.47;4987013;28;20030;-89
2022/05/27 02:35:10;;;;;;;21.77;13.15;;;;;;;20.42;71.64;101049.53;4979803;28;20385;-89
2022/05/27 02:37:54;;;;;;;23.30;14.95;;;;;;;20.33;72.21;101034.22;4980343;28;20140;-89
2022/05/27 02:40:41;;;;;;;23.95;14.65;;;;;;;20.34;72.59;101045.97;4996153;28;20026;-90
2022/05/27 02:43:30;;;;;;;20.33;14.35;;;;;;;20.34;72.63;101048.69;4978349;28;20420;-89
2022/05/27 02:46:28;;;;;;;22.98;14.43;;;;;;;20.34;72.92;101052.28;4996069;28;20030;-88
2022/05/27 02:49:13;;;;;;;29.65;14.80;;;;;;;20.30;72.92;101050.09;4997185;28;20396;-88
2022/05/27 02:52:00;;;;;;;17.98;13.10;;;;;;;20.34;72.81;101056.91;4979616;28;20037;-87
2022/05/27 02:54:34;;;;;;;32.35;13.05;;;;;;;20.34;72.96;101060.47;5011960;28;20026;-88
2022/05/27 02:57:29;;;;;;;22.38;12.75;;;;;;;20.33;72.95;101056.06;4996712;28;20084;-89
2022/05/27 02:59:55;;;;;;;63.53;15.95;;;;;;;20.29;72.81;101060.19;4969913;28;20050;-90
2022/05/27 03:02:21;;;;;;;24.40;14.38;;;;;;;20.29;72.76;101065.63;4997121;28;20038;-88
2022/05/27 03:04:52;;;;;;;21.50;12.25;;;;;;;20.21;72.91;101051.13;4996119;28;20040;-89
2022/05/27 03:07:36;;;;;;;23.30;12.27;;;;;;;20.36;72.64;101065.78;4996603;28;20037;-91
2022/05/27 03:10:28;;;;;;;21.38;12.00;;;;;;;20.34;72.25;101068.69;4979079;28;20034;-88
2022/05/27 03:13:25;;;;;;;16.38;10.30;;;;;;;20.31;72.00;101066.31;4977575;28;20030;-86
2022/05/27 03:16:23;;;;;;;19.65;10.73;;;;;;;20.33;71.87;101067.00;4995843;28;20497;-86
2022/05/27 03:19:20;;;;;;;16.27;10.75;;;;;;;20.35;71.78;101067.66;4972687;28;20113;-87
2022/05/27 03:22:11;;;;;;;26.67;12.63;;;;;;;20.23;71.89;101060.84;4995493;28;20481;-88
2022/05/27 03:24:42;;;;;;;16.45;10.50;;;;;;;20.35;71.96;101075.88;4994780;28;20030;-87
2022/05/27 03:27:19;;;;;;;15.98;10.60;;;;;;;20.35;71.87;101080.47;4994511;28;20026;-87
2022/05/27 03:29:53;;;;;;;24.95;11.70;;;;;;;20.31;71.77;101074.50;4994383;28;20041;-86
2022/05/27 03:32:30;;;;;;;17.00;12.23;;;;;;;20.28;71.63;101080.31;4994606;28;20037;-84
2022/05/27 03:35:04;;;;;;;28.63;13.20;;;;;;;20.29;71.84;101076.56;4994040;28;20030;-83
2022/05/27 03:37:39;;;;;;;22.55;11.20;;;;;;;20.31;72.15;101085.44;4994137;28;20054;-83
2022/05/27 03:40:11;;;;;;;23.20;11.57;;;;;;;20.31;72.34;101074.50;4994087;28;20030;-81
2022/05/27 03:42:39;;;;;;;27.60;13.18;;;;;;;20.37;72.32;101076.53;4977059;28;20034;-83
2022/05/27 03:45:12;;;;;;;30.73;12.18;;;;;;;20.42;72.23;101086.94;4994620;28;20476;-83
2022/05/27 03:47:39;;;;;;;38.53;12.63;;;;;;;20.39;72.18;101090.88;4994418;28;20099;-81
2022/05/27 03:50:07;;;;;;;33.53;12.57;;;;;;;20.45;72.64;101089.31;4993955;28;20054;-83
2022/05/27 03:52:37;;;;;;;25.10;14.20;;;;;;;20.47;72.49;101087.25;4994833;28;20041;-84
2022/05/27 03:55:04;;;;;;;21.73;14.52;;;;;;;20.38;72.42;101083.69;4995710;28;20088;-90
2022/05/27 03:57:29;;;;;;;38.63;13.40;;;;;;;20.45;71.97;101108.44;4995818;28;20027;-88
2022/05/27 03:59:55;;;;;;;22.08;14.00;;;;;;;20.45;71.79;101090.16;4995121;28;20076;-88
2022/05/27 04:02:20;;;;;;;25.65;13.38;;;;;;;20.58;71.62;101095.91;4995014;28;20022;-86
2022/05/27 04:04:46;;;;;;;31.30;14.77;;;;;;;20.61;71.82;101092.81;4994091;28;20403;-88
2022/05/27 04:07:11;;;;;;;21.55;12.95;;;;;;;20.64;71.52;101097.91;4994414;28;20061;-82
2022/05/27 04:09:37;;;;;;;27.40;12.07;;;;;;;20.62;71.16;101099.13;4993116;28;20027;-82
2022/05/27 04:12:03;;;;;;;21.75;13.18;;;;;;;20.55;71.27;101088.06;4994974;28;20042;-81
2022/05/27 04:14:31;;;;;;;22.75;14.52;;;;;;;20.60;71.45;101102.06;4993443;28;20019;-81
2022/05/27 04:17:27;;;;;;;30.10;15.65;;;;;;;20.67;71.53;101101.34;4994988;28;20499;-83
2022/05/27 04:19:42;;;;;;;37.95;17.90;;;;;;;20.71;71.87;101098.06;4994266;28;20068;-85
2022/05/27 04:22:07;;;;;;;39.92;19.33;;;;;;;20.69;72.40;101088.34;4977200;28;20512;-87
2022/05/27 04:24:33;;;;;;;38.10;18.85;;;;;;;20.72;72.74;101094.31;4977519;28;20168;-86
2022/05/27 04:26:59;;;;;;;36.13;19.02;;;;;;;20.79;72.89;101105.38;4993621;28;20027;-88
2022/05/27 04:29:25;;;;;;;36.33;19.38;;;;;;;20.73;72.67;101100.63;4994207;28;20030;-88
2022/05/27 04:31:50;;;;;;;42.58;21.23;;;;;;;20.82;72.40;101110.50;4996620;28;20027;-84
2022/05/27 04:34:16;;;;;;;32.88;19.38;;;;;;;20.83;72.20;101101.22;4964597;28;20030;-87
2022/05/27 04:36:41;;;;;;;26.73;18.23;;;;;;;20.84;71.76;101089.28;4997981;28;20142;-85
2022/05/27 04:39:08;;;;;;;27.02;17.75;;;;;;;20.82;71.46;101102.28;4976657;28;20050;-86
2022/05/27 04:41:33;;;;;;;23.58;17.55;;;;;;;20.80;71.36;101096.13;4977335;28;20023;-86
2022/05/27 04:43:59;;;;;;;40.55;18.60;;;;;;;20.87;71.28;101094.38;4977055;28;20086;-86
2022/05/27 04:46:24;;;;;;;37.47;20.98;;;;;;;20.92;71.02;101106.47;4977201;28;20033;-87
2022/05/27 04:48:49;;;;;;;28.60;20.58;;;;;;;20.97;70.83;101114.16;4976937;28;20025;-86
2022/05/27 04:51:15;;;;;;;24.88;18.42;;;;;;;20.98;70.72;101116.69;4977638;28;20106;-86
2022/05/27 04:53:41;;;;;;;31.83;19.15;;;;;;;20.99;70.91;101117.56;4976725;28;20035;-88
2022/05/27 04:56:09;;;;;;;27.77;18.83;;;;;;;20.97;71.11;101108.69;4974730;28;20023;-88
2022/05/27 04:58:34;;;;;;;31.23;17.33;;;;;;;21.07;70.73;101112.03;4975165;28;20041;-87
2022/05/27 05:01:00;;;;;;;32.38;15.10;;;;;;;21.14;71.05;101110.31;4975695;28;20030;-87
2022/05/27 05:03:25;;;;;;;50.20;16.83;;;;;;;21.16;70.15;101114.56;4977391;28;20038;-87
2022/05/27 05:05:51;;;;;;;55.30;17.33;;;;;;;21.25;70.15;101123.59;4976573;28;20597;-87
2022/05/27 05:08:24;;;;;;;38.05;15.00;;;;;;;21.30;70.43;101115.66;4976353;28;20029;-87
2022/05/27 05:10:49;;;;;;;25.23;14.18;;;;;;;21.28;70.32;101116.91;4977062;28;20027;-87
2022/05/27 05:13:15;;;;;;;28.45;14.57;;;;;;;21.28;70.55;101112.28;4975661;28;20042;-86
2022/05/27 05:15:41;;;;;;;37.97;15.55;;;;;;;21.40;70.64;101121.75;4977873;28;20034;-88
2022/05/27 05:18:07;;;;;;;51.42;16.88;;;;;;;21.47;70.71;101121.84;4977036;28;20034;-86
2022/05/27 05:20:33;;;;;;;34.08;15.18;;;;;;;21.48;70.68;101105.25;4978663;28;20388;-86
2022/05/27 05:22:59;;;;;;;25.02;14.13;;;;;;;21.64;70.14;101107.88;4979516;28;20027;-88
2022/05/27 05:25:25;;;;;;;38.92;14.88;;;;;;;21.70;69.69;101111.75;4976741;28;20110;-88
2022/05/27 05:27:51;;;;;;;30.05;13.65;;;;;;;21.79;69.39;101118.84;4976970;28;20027;-87
2022/05/27 05:30:19;;;;;;;35.63;13.32;;;;;;;21.89;69.06;101115.88;4977109;28;20038;-87
2022/05/27 05:32:45;;;;;;;18.35;11.27;;;;;;;21.91;68.14;101108.31;4977264;28;20481;-86
2022/05/27 05:35:12;;;;;;;25.52;12.38;;;;;;;22.04;67.65;101119.50;4977284;28;20106;-87
2022/05/27 05:37:37;;;;;;;28.75;13.02;;;;;;;22.04;67.02;101114.00;4975652;28;20062;-87
2022/05/27 05:40:03;;;;;;;24.42;14.75;;;;;;;22.03;67.15;101101.34;4976764;28;20562;-87
2022/05/27 05:42:29;;;;;;;24.42;14.10;;;;;;;22.17;66.91;101100.50;4977628;28;20026;-87
2022/05/27 05:44:55;;;;;;;45.08;17.13;;;;;;;22.23;66.78;101102.50;4980449;28;20081;-88
2022/05/27 05:47:21;;;;;;;34.15;15.63;;;;;;;22.26;66.83;101102.13;4978044;28;20035;-89
2022/05/27 05:49:46;;;;;;;20.33;13.40;;;;;;;22.35;66.47;101094.66;4975984;28;20053;-87
2022/05/27 05:52:12;;;;;;;25.13;13.75;;;;;;;22.43;66.07;101092.66;4977614;28;20488;-85
2022/05/27 05:54:37;;;;;;;21.95;14.43;;;;;;;22.55;65.55;101107.59;4976522;28;20479;-85
2022/05/27 05:57:04;;;;;;;25.83;16.17;;;;;;;22.64;65.21;101100.09;4976875;28;20026;-87
2022/05/27 05:59:31;;;;;;;27.10;14.10;;;;;;;22.69;65.29;101114.94;4975530;28;20061;-86
2022/05/27 06:01:58;;;;;;;33.65;15.95;;;;;;;22.69;65.22;101103.97;4976066;28;20541;-86
2022/05/27 06:04:23;;;;;;;28.35;16.45;;;;;;;22.77;65.47;101098.41;4976215;28;20551;-86
2022/05/27 06:06:49;;;;;;;47.95;16.15;;;;;;;22.72;65.68;101091.78;4976524;28;20031;-87
2022/05/27 06:09:14;;;;;;;38.55;15.75;;;;;;;22.69;65.94;101095.75;4975785;28;20510;-86
2022/05/27 06:11:40;;;;;;;33.05;15.88;;;;;;;22.75;65.98;101097.72;4974169;28;20026;-84
2022/05/27 06:14:06;;;;;;;29.63;16.58;;;;;;;22.74;65.03;101090.56;4975734;28;20480;-85
2022/05/27 06:16:33;;;;;;;27.00;14.10;;;;;;;22.77;65.80;101090.19;4975364;28;20062;-86
2022/05/27 06:18:59;;;;;;;31.58;14.93;;;;;;;22.89;65.32;101086.94;4976551;28;20027;-87
2022/05/27 06:21:25;;;;;;;33.45;12.60;;;;;;;22.92;65.35;101081.06;4976845;28;20093;-86
2022/05/27 06:23:51;;;;;;;25.15;13.45;;;;;;;22.90;65.68;101074.91;4976639;28;20401;-86
2022/05/27 06:26:16;;;;;;;27.02;12.65;;;;;;;22.92;65.72;101076.41;4976012;28;20045;-86
2022/05/27 06:34:25;;;;;;;23.67;11.63;;;;;;;22.59;66.50;101083.38;4975952;28;20521;-87
2022/05/27 06:36:53;;;;;;;17.73;11.20;;;;;;;22.63;66.70;101087.41;4974243;28;20027;-87
2022/05/27 06:39:20;;;;;;;22.35;11.02;;;;;;;22.59;66.41;101077.91;4993417;28;20049;-87
2022/05/27 06:41:46;;;;;;;62.30;15.70;;;;;;;22.69;66.63;101092.16;4995086;28;20030;-87
2022/05/27 06:44:11;;;;;;;16.42;11.13;;;;;;;22.66;65.88;101081.56;4995112;28;20035;-87
2022/05/27 06:46:37;;;;;;;19.20;10.68;;;;;;;22.55;66.54;101088.38;4994247;28;20030;-87
2022/05/27 06:49:05;;;;;;;26.45;11.02;;;;;;;22.58;67.20;101093.50;4994260;28;20037;-87
2022/05/27 06:51:31;;;;;;;28.20;11.63;;;;;;;22.56;67.32;101081.03;4977175;28;20030;-86
2022/05/27 06:53:56;;;;;;;16.38;10.80;;;;;;;22.51;66.83;101073.34;4994727;28;20022;-86
2022/05/27 06:56:22;;;;;;;24.50;11.02;;;;;;;22.68;67.43;101085.84;4995017;28;20029;-86
2022/05/27 06:58:48;;;;;;;22.02;11.57;;;;;;;22.68;66.93;101088.59;4993893;28;20030;-86
2022/05/27 07:01:14;;;;;;;19.75;10.52;;;;;;;22.71;67.44;101085.47;4994861;28;20080;-87
2022/05/27 07:03:39;;;;;;;26.52;10.98;;;;;;;22.68;67.82;101077.63;4995362;28;20030;-86
2022/05/27 07:06:06;;;;;;;30.45;9.82;;;;;;;22.84;67.74;101083.94;4994476;28;20033;-87
2022/05/27 07:08:32;;;;;;;15.32;9.27;;;;;;;22.88;67.84;101066.88;4977651;28;20576;-88
2022/05/27 07:10:58;;;;;;;14.82;9.20;;;;;;;22.75;67.59;101061.25;4995280;28;20026;-87
2022/05/27 07:13:24;;;;;;;27.65;11.00;;;;;;;22.81;68.85;101084.31;4995083;28;20026;-87
2022/05/27 07:15:49;;;;;;;19.42;9.90;;;;;;;22.81;68.48;101062.38;4995644;28;20073;-87
2022/05/27 07:18:15;;;;;;;20.40;9.77;;;;;;;22.99;68.68;101076.50;4995066;28;20026;-87
2022/05/27 07:20:41;;;;;;;15.45;8.82;;;;;;;22.95;68.31;101069.69;4995236;28;20090;-86
2022/05/27 07:23:08;;;;;;;19.27;10.23;;;;;;;23.10;67.89;101073.22;4994715;28;20128;-86
2022/05/27 07:25:34;;;;;;;21.08;8.75;;;;;;;23.23;67.76;101078.88;4977231;28;20023;-87
2022/05/27 07:28:04;;;;;;;20.13;10.60;;;;;;;23.23;66.46;101056.91;4996208;28;20030;-87
2022/05/27 07:30:29;;;;;;;14.57;8.77;;;;;;;23.31;66.78;101059.50;4995379;28;20018;-86
2022/05/27 07:32:55;;;;;;;25.83;9.90;;;;;;;23.38;67.58;101073.28;4995105;28;20022;-87
2022/05/27 07:35:20;;;;;;;20.80;10.30;;;;;;;23.29;67.94;101058.84;4994983;28;20021;-87
2022/05/27 07:37:47;;;;;;;20.98;8.48;;;;;;;23.29;67.33;101067.09;4995086;28;20066;-87
2022/05/27 07:40:12;;;;;;;21.67;8.30;;;;;;;23.29;68.42;101073.44;4994946;28;20034;-86
2022/05/27 07:42:38;;;;;;;12.13;6.53;;;;;;;23.31;67.89;101075.97;4994668;28;20026;-87
2022/05/27 07:45:05;;;;;;;20.40;9.18;;;;;;;23.17;68.01;101069.53;4995270;28;20054;-86
2022/05/27 07:47:31;;;;;;;12.95;8.55;;;;;;;23.20;67.32;101071.03;4994673;28;20049;-87
2022/05/27 07:49:57;;;;;;;16.85;8.18;;;;;;;23.13;67.52;101092.91;4977566;28;20464;-87
2022/05/27 07:52:23;;;;;;;14.10;7.65;;;;;;;23.08;67.11;101086.31;4976945;28;20019;-85
2022/05/27 07:54:50;;;;;;;24.92;8.88;;;;;;;23.17;66.99;101069.53;4995572;28;20480;-86
2022/05/27 07:57:25;;;;;;;15.60;8.45;;;;;;;23.28;66.49;101082.72;4995314;28;20033;-87
2022/05/27 07:59:54;;;;;;;19.88;8.25;;;;;;;23.37;66.60;101088.91;4995241;28;20132;-86
2022/05/27 08:02:19;;;;;;;13.68;8.23;;;;;;;23.28;66.23;101081.84;4994625;28;20078;-87
2022/05/27 08:04:45;;;;;;;17.20;8.82;;;;;;;23.33;64.74;101082.13;4994973;28;20523;-87
2022/05/27 08:07:10;;;;;;;12.85;7.78;;;;;;;23.51;65.45;101081.69;4995402;28;20028;-87
2022/05/27 08:09:35;;;;;;;15.85;7.68;;;;;;;23.37;65.69;101080.69;4995655;28;20030;-87
2022/05/27 08:12:01;;;;;;;24.15;8.43;;;;;;;23.39;66.18;101075.88;4999249;28;20018;-87
2022/05/27 08:14:26;;;;;;;19.85;7.50;;;;;;;23.56;65.79;101085.53;4998669;28;20129;-86
2022/05/27 08:16:52;;;;;;;29.52;8.07;;;;;;;23.55;65.54;101072.84;4997637;28;20096;-87
2022/05/27 08:19:17;;;;;;;22.38;8.35;;;;;;;23.64;64.63;101074.41;4999136;28;20492;-87
2022/05/27 08:21:43;;;;;;;13.23;7.50;;;;;;;23.75;64.68;101081.25;4999961;28;20022;-87
2022/05/27 08:24:08;;;;;;;16.52;8.88;;;;;;;23.66;63.23;101075.06;4997214;28;20029;-87
2022/05/27 08:26:34;;;;;;;11.30;7.82;;;;;;;23.75;63.95;101079.38;4996962;28;20030;-85
2022/05/27 08:28:59;;;;;;;21.70;8.82;;;;;;;23.70;64.74;101080.97;4997128;28;20022;-86
2022/05/27 08:31:25;;;;;;;21.13;7.55;;;;;;;23.92;64.70;101087.28;4996769;28;20408;-86
2022/05/27 08:39:18;;;;;;;16.35;9.55;;;;;;;24.11;63.77;101081.13;4996538;28;20116;-86
2022/05/27 08:41:51;;;;;;;16.15;7.22;;;;;;;24.20;63.13;101083.50;4995439;28;20057;-86
2022/05/27 08:44:24;;;;;;;15.90;7.43;;;;;;;24.33;62.36;101083.59;4979504;28;20593;-86
2022/05/27 08:47:16;;;;;;;20.38;8.80;;;;;;;24.43;61.97;101079.63;4997036;28;20293;-87
2022/05/27 08:49:46;;;;;;;18.33;9.00;;;;;;;24.53;60.51;101077.31;4996718;28;20033;-86
2022/05/27 08:52:23;;;;;;;15.23;7.25;;;;;;;24.70;60.34;101090.53;4997444;28;20031;-86
2022/05/27 08:55:03;;;;;;;15.75;7.85;;;;;;;24.61;59.91;101060.66;4996911;28;20022;-86
2022/05/27 09:00:20;;;;;;;20.35;7.95;;;;;;;24.27;62.89;101065.16;4996861;28;20049;-86
2022/05/27 09:02:55;;;;;;;;;;;;;;;24.30;61.82;101077.63;4997450;28;20026;-87
2022/05/27 09:05:36;;;;;;;13.32;7.78;;;;;;;24.00;61.98;101056.91;4997370;28;19921;-87
2022/05/27 09:08:06;;;;;;;12.00;8.85;;;;;;;24.17;62.44;101059.16;4997159;28;20080;-86
2022/05/27 09:10:56;;;;;;;17.58;7.55;;;;;;;24.22;61.68;101080.53;4997259;28;20082;-86
2022/05/27 09:13:34;;;;;;;15.00;6.80;;;;;;;24.15;62.47;101060.44;4980003;28;20037;-87
2022/05/27 09:16:30;;;;;;;14.27;8.15;;;;;;;24.41;61.88;101068.81;4979768;28;20020;-86
2022/05/27 09:19:20;;;;;;;18.17;8.57;;;;;;;24.42;62.50;101070.50;4997694;28;20030;-86
2022/05/27 09:22:12;;;;;;;20.40;8.90;;;;;;;24.49;61.79;101062.28;4979642;28;20030;-86
2022/05/27 09:25:02;;;;;;;10.10;8.63;;;;;;;24.62;60.28;101065.06;4979227;28;20116;-87
2022/05/27 09:27:46;;;;;;;16.10;8.93;;;;;;;24.54;59.71;101068.88;4997168;28;20035;-87
2022/05/27 09:30:15;;;;;;;17.02;8.60;;;;;;;24.60;59.77;101064.44;5004538;28;20053;-86
2022/05/27 09:33:00;;;;;;;26.00;11.15;;;;;;;24.51;59.89;101062.94;4987461;28;20026;-85
2022/05/27 09:35:34;;;;;;;16.40;9.43;;;;;;;24.43;59.18;101050.22;5003144;28;20048;-86
2022/05/27 09:38:03;;;;;;;19.88;10.70;;;;;;;24.53;59.79;101047.91;4986635;28;20508;-87
2022/05/27 09:40:40;;;;;;;17.73;9.00;;;;;;;24.50;59.23;101048.31;4999899;28;20098;-87
2022/05/27 09:43:37;;;;;;;23.17;14.65;;;;;;;24.68;57.78;101059.59;4999083;28;20038;-87
2022/05/27 09:46:06;;;;;;;17.55;10.10;;;;;;;24.55;57.59;101043.06;5001384;28;20037;-86
2022/05/27 09:48:32;;;;;;;24.67;10.80;;;;;;;24.69;57.71;101057.72;4998463;28;20480;-87
2022/05/27 09:51:02;;;;;;;16.15;10.43;;;;;;;24.69;57.32;101044.81;4997408;28;20037;-87
2022/05/27 09:53:36;;;;;;;23.15;10.93;;;;;;;24.73;56.63;101057.09;4997866;28;20058;-86
2022/05/27 09:56:11;;;;;;;41.03;14.23;;;;;;;24.73;56.73;101054.34;4980220;28;20027;-88
2022/05/27 09:58:46;;;;;;;21.30;11.18;;;;;;;24.72;54.78;101049.91;4996590;28;20026;-86
2022/05/27 10:01:28;;;;;;;27.27;10.80;;;;;;;24.83;56.01;101045.75;4996313;28;20034;-87
2022/05/27 10:04:06;;;;;;;15.25;10.18;;;;;;;24.91;55.69;101042.78;4997376;28;20101;-86
2022/05/27 10:06:34;;;;;;;24.73;12.18;;;;;;;24.95;55.88;101038.56;4997545;28;20125;-86
2022/05/27 10:09:05;;;;;;;12.70;10.25;;;;;;;25.19;54.70;101045.38;4998058;28;20019;-88
2022/05/27 10:11:46;;;;;;;12.18;9.60;;;;;;;25.25;54.09;101044.53;4996813;28;20029;-86
2022/05/27 10:14:28;;;;;;;14.80;9.35;;;;;;;25.34;54.08;101037.78;4979159;28;20030;-86
2022/05/27 10:17:11;;;;;;;11.17;8.97;;;;;;;25.38;53.37;101030.78;4996315;28;20027;-86
2022/05/27 10:19:39;;;;;;;12.38;9.68;;;;;;;25.50;53.06;101031.88;4997826;28;20311;-86
2022/05/27 10:22:06;;;;;;;14.98;9.55;;;;;;;25.61;53.20;101028.47;4996950;28;20056;-88
2022/05/27 10:24:42;;;;;;;12.95;10.65;;;;;;;25.62;53.27;101019.16;4995850;28;20034;-86
2022/05/27 10:27:08;;;;;;;18.80;9.75;;;;;;;25.68;52.34;101032.09;4995138;28;20030;-87
2022/05/27 10:29:48;;;;;;;16.80;9.02;;;;;;;25.78;52.18;101029.72;4978045;28;20522;-86
2022/05/27 10:32:31;;;;;;;12.82;10.30;;;;;;;25.92;53.37;101030.56;4995654;28;20033;-87
2022/05/27 10:34:58;;;;;;;16.13;9.35;;;;;;;25.97;52.67;101023.31;4997429;28;20496;-86
2022/05/27 10:37:44;;;;;;;13.48;9.75;;;;;;;25.98;50.87;101014.00;4996454;28;20029;-86
2022/05/27 10:40:19;;;;;;;12.88;8.85;;;;;;;26.06;50.62;101026.69;4995263;28;20022;-87
2022/05/27 10:43:24;;;;;;;9.90;6.85;;;;;;;26.28;50.32;101022.63;4994732;28;20053;-87
2022/05/27 10:45:53;;;;;;;14.68;6.43;;;;;;;26.06;50.45;101012.06;4997035;28;20022;-87
2022/05/27 10:48:34;;;;;;;10.60;5.10;;;;;;;26.05;50.05;101018.66;4997009;28;20026;-87
2022/05/27 10:51:39;;;;;;;11.55;4.82;;;;;;;25.95;50.49;101019.94;4998561;28;20105;-87
2022/05/27 10:54:30;;;;;;;12.75;4.93;;;;;;;25.89;49.95;101015.31;4997451;28;20025;-86
2022/05/27 11:03:06;;;;;;;10.73;4.18;;;;;;;25.87;49.52;101009.13;4999953;28;20028;-86
2022/05/27 11:05:55;;;;;;;10.02;4.38;;;;;;;25.98;49.30;101002.97;4998556;28;20030;-86
2022/05/27 11:08:30;;;;;;;19.52;4.25;;;;;;;25.92;49.34;100989.22;4978934;28;20030;-88
2022/05/27 11:11:07;;;;;;;8.95;4.45;;;;;;;26.00;49.84;101005.50;4997071;28;20049;-85
2022/05/27 11:17:00;;;;;;;18.08;4.75;;;;;;;25.92;50.17;100991.97;4995953;28;20041;-86
2022/05/27 11:19:31;;;;;;;10.77;4.18;;;;;;;25.97;51.07;100994.91;4995379;28;20505;-87
2022/05/27 11:22:24;;;;;;;10.90;3.97;;;;;;;26.02;51.75;100988.75;4995643;28;20538;-86
2022/05/27 11:25:09;;;;;;;9.32;4.72;;;;;;;25.87;51.16;100981.56;4994569;28;20030;-87
2022/05/27 11:27:41;;;;;;;5.45;3.63;;;;;;;25.77;50.88;100981.19;4976341;28;20081;-87
2022/05/27 11:30:21;;;;;;;10.68;4.50;;;;;;;25.84;51.07;100972.91;4993853;28;20038;-87
2022/05/27 11:32:49;;;;;;;8.18;4.10;;;;;;;25.95;49.81;100972.25;4993944;28;20026;-86
2022/05/27 11:35:38;;;;;;;9.38;3.38;;;;;;;25.84;50.28;100962.72;4993596;28;20050;-87
2022/05/27 11:38:25;;;;;;;10.27;3.20;;;;;;;25.91;49.82;100966.31;4976740;28;20065;-88
2022/05/27 11:40:56;;;;;;;12.10;3.40;;;;;;;25.94;49.55;100968.63;4993818;28;20035;-87
2022/05/27 11:43:53;;;;;;;10.95;3.58;;;;;;;26.03;49.39;100958.22;4994360;28;20084;-88
2022/05/27 11:46:58;;;;;;;13.23;3.58;;;;;;;26.14;49.04;100951.19;4994539;28;20033;-86
2022/05/27 11:49:43;;;;;;;9.93;3.60;;;;;;;26.06;48.21;100959.66;4996295;28;20022;-86
2022/05/27 11:52:33;;;;;;;6.25;3.20;;;;;;;26.12;48.68;100953.28;4995205;28;20073;-87
2022/05/27 11:55:34;;;;;;;5.18;3.05;;;;;;;26.26;48.98;100946.69;4995454;28;20023;-85
2022/05/27 11:58:20;;;;;;;13.20;3.83;;;;;;;26.33;49.82;100939.22;4977140;28;20038;-87
2022/05/27 12:00:52;;;;;;;13.25;4.07;;;;;;;26.39;49.27;100927.34;4994696;28;20496;-87
2022/05/27 12:03:29;;;;;;;6.55;3.13;;;;;;;26.58;47.86;100931.88;4994549;28;20053;-88